sensor_id;sensor_type;location;lat;lon;timestamp;temperature;humidity
1005;DHT22;491;53.480;10.174;2022-08-21T00:00:52;13.70;99.90
1005;DHT22;491;53.480;10.174;2022-08-21T00:03:17;13.80;99.90
1005;DHT22;491;53.480;10.174;2022-08-21T00:05:46;13.90;99.90
1005;DHT22;491;53.480;10.174;2022-08-21T00:08:12;13.80;99.90
1005;DHT22;491;53.480;10.174;2022-08-21T00:10:39;13.70;99.90
1005;DHT22;491;53.480;10.174;2022-08-21T00:13:05;13.70;99.90
1005;DHT22;491;53.480;10.174;2022-08-21T00:15:33;13.60;99.90
1005;DHT22;491;53.480;10.174;2022-08-21T00:18:00;13.60;99.90
1005;DHT22;491;53.480;10.174;2022-08-21T00:20:26;13.50;99.90
1005;DHT22;491;53.480;10.174;2022-08-21T00:22:52;13.60;99.90
1005;DHT22;491;53.480;10.174;2022-08-21T00:25:19;13.60;99.90
1005;DHT22;491;53.480;10.174;2022-08-21T00:27:45;13.60;99.90
1005;DHT22;491;53.480;10.174;2022-08-21T00:30:13;13.50;99.90
1005;DHT22;491;53.480;10.174;2022-08-21T00:32:40;13.40;99.90
1005;DHT22;491;53.480;10.174;2022-08-21T00:35:12;13.30;99.90
1005;DHT22;491;53.480;10.174;2022-08-21T00:37:38;13.30;99.90
1005;DHT22;491;53.480;10.174;2022-08-21T00:40:08;13.30;99.90
1005;DHT22;491;53.480;10.174;2022-08-21T00:42:34;13.30;99.90
1005;DHT22;491;53.480;10.174;2022-08-21T00:45:00;13.30;99.90
1005;DHT22;491;53.480;10.174;2022-08-21T00:47:26;13.30;99.90
1005;DHT22;491;53.480;10.174;2022-08-21T00:49:52;13.20;99.90
1005;DHT22;491;53.480;10.174;2022-08-21T00:52:21;13.10;99.90
1005;DHT22;491;53.480;10.174;2022-08-21T00:54:48;13.10;99.90
1005;DHT22;491;53.480;10.174;2022-08-21T00:57:22;13.10;99.90
1005;DHT22;491;53.480;10.174;2022-08-21T00:59:51;13.10;99.90
1005;DHT22;491;53.480;10.174;2022-08-21T01:02:18;13.10;99.90
1005;DHT22;491;53.480;10.174;2022-08-21T01:04:45;13.10;99.90
1005;DHT22;491;53.480;10.174;2022-08-21T01:07:12;13.20;99.90
1005;DHT22;491;53.480;10.174;2022-08-21T01:09:38;13.30;99.90
1005;DHT22;491;53.480;10.174;2022-08-21T01:12:04;13.50;99.90
1005;DHT22;491;53.480;10.174;2022-08-21T01:14:30;13.50;99.90
1005;DHT22;491;53.480;10.174;2022-08-21T01:16:57;13.50;99.90
1005;DHT22;491;53.480;10.174;2022-08-21T01:19:24;13.60;99.90
1005;DHT22;491;53.480;10.174;2022-08-21T01:21:51;13.50;99.90
1005;DHT22;491;53.480;10.174;2022-08-21T01:24:16;13.40;99.90
1005;DHT22;491;53.480;10.174;2022-08-21T01:26:43;13.20;99.90
1005;DHT22;491;53.480;10.174;2022-08-21T01:29:28;13.10;99.90
1005;DHT22;491;53.480;10.174;2022-08-21T01:31:56;13.10;99.90
1005;DHT22;491;53.480;10.174;2022-08-21T01:34:21;13.20;99.90
1005;DHT22;491;53.480;10.174;2022-08-21T01:36:47;13.20;99.90
1005;DHT22;491;53.480;10.174;2022-08-21T01:39:13;13.10;99.90
1005;DHT22;491;53.480;10.174;2022-08-21T01:41:39;13.00;99.90
1005;DHT22;491;53.480;10.174;2022-08-21T01:44:05;13.10;99.90
1005;DHT22;491;53.480;10.174;2022-08-21T01:46:30;13.20;99.90
1005;DHT22;491;53.480;10.174;2022-08-21T01:48:56;13.10;99.90
1005;DHT22;491;53.480;10.174;2022-08-21T01:51:21;13.10;99.90
1005;DHT22;491;53.480;10.174;2022-08-21T01:53:47;13.10;99.90
1005;DHT22;491;53.480;10.174;2022-08-21T01:56:14;13.10;99.90
1005;DHT22;491;53.480;10.174;2022-08-21T01:58:42;13.00;99.90
1005;DHT22;491;53.480;10.174;2022-08-21T02:01:08;13.10;99.90
1005;DHT22;491;53.480;10.174;2022-08-21T02:03:34;13.00;99.90
1005;DHT22;491;53.480;10.174;2022-08-21T02:06:00;12.90;99.90
1005;DHT22;491;53.480;10.174;2022-08-21T02:08:28;12.90;99.90
1005;DHT22;491;53.480;10.174;2022-08-21T02:10:53;12.80;99.90
1005;DHT22;491;53.480;10.174;2022-08-21T02:13:19;12.80;99.90
1005;DHT22;491;53.480;10.174;2022-08-21T02:15:45;12.80;99.90
1005;DHT22;491;53.480;10.174;2022-08-21T02:18:11;12.70;99.90
1005;DHT22;491;53.480;10.174;2022-08-21T02:20:41;12.60;99.90
1005;DHT22;491;53.480;10.174;2022-08-21T02:23:08;12.70;99.90
1005;DHT22;491;53.480;10.174;2022-08-21T02:25:34;12.70;99.90
1005;DHT22;491;53.480;10.174;2022-08-21T02:28:04;12.70;99.90
1005;DHT22;491;53.480;10.174;2022-08-21T02:30:35;12.60;99.90
1005;DHT22;491;53.480;10.174;2022-08-21T02:33:01;12.60;99.90
1005;DHT22;491;53.480;10.174;2022-08-21T02:35:27;12.60;99.90
1005;DHT22;491;53.480;10.174;2022-08-21T02:38:00;12.50;99.90
1005;DHT22;491;53.480;10.174;2022-08-21T02:40:30;12.50;99.90
1005;DHT22;491;53.480;10.174;2022-08-21T02:42:57;12.50;99.90
1005;DHT22;491;53.480;10.174;2022-08-21T02:45:23;12.40;99.90
1005;DHT22;491;53.480;10.174;2022-08-21T02:47:54;12.50;99.90
1005;DHT22;491;53.480;10.174;2022-08-21T02:50:27;12.40;99.90
1005;DHT22;491;53.480;10.174;2022-08-21T02:52:53;12.50;99.90
1005;DHT22;491;53.480;10.174;2022-08-21T02:55:20;12.60;99.90
1005;DHT22;491;53.480;10.174;2022-08-21T02:57:47;12.50;99.90
1005;DHT22;491;53.480;10.174;2022-08-21T03:00:13;12.40;99.90
1005;DHT22;491;53.480;10.174;2022-08-21T03:02:39;12.40;99.90
1005;DHT22;491;53.480;10.174;2022-08-21T03:05:07;12.40;99.90
1005;DHT22;491;53.480;10.174;2022-08-21T03:07:33;12.50;99.90
1005;DHT22;491;53.480;10.174;2022-08-21T03:09:59;12.40;99.90
1005;DHT22;491;53.480;10.174;2022-08-21T03:12:25;12.40;99.90
1005;DHT22;491;53.480;10.174;2022-08-21T03:14:50;12.40;99.90
1005;DHT22;491;53.480;10.174;2022-08-21T03:17:16;12.40;99.90
1005;DHT22;491;53.480;10.174;2022-08-21T03:19:41;12.40;99.90
1005;DHT22;491;53.480;10.174;2022-08-21T03:22:07;12.30;99.90
1005;DHT22;491;53.480;10.174;2022-08-21T03:24:33;12.40;99.90
1005;DHT22;491;53.480;10.174;2022-08-21T03:26:58;12.40;99.90
1005;DHT22;491;53.480;10.174;2022-08-21T03:29:25;12.50;99.90
1005;DHT22;491;53.480;10.174;2022-08-21T03:31:50;12.50;99.90
1005;DHT22;491;53.480;10.174;2022-08-21T03:34:17;12.40;99.90
1005;DHT22;491;53.480;10.174;2022-08-21T03:36:43;12.40;99.90
1005;DHT22;491;53.480;10.174;2022-08-21T03:39:09;12.30;99.90
1005;DHT22;491;53.480;10.174;2022-08-21T03:41:34;12.30;99.90
1005;DHT22;491;53.480;10.174;2022-08-21T03:44:00;12.30;99.90
1005;DHT22;491;53.480;10.174;2022-08-21T03:46:25;12.30;99.90
1005;DHT22;491;53.480;10.174;2022-08-21T03:48:51;12.30;99.90
1005;DHT22;491;53.480;10.174;2022-08-21T03:51:18;12.30;99.90
1005;DHT22;491;53.480;10.174;2022-08-21T03:53:44;12.30;99.90
1005;DHT22;491;53.480;10.174;2022-08-21T03:56:10;12.30;99.90
1005;DHT22;491;53.480;10.174;2022-08-21T03:58:37;12.30;99.90
1005;DHT22;491;53.480;10.174;2022-08-21T04:01:05;12.20;99.90
1005;DHT22;491;53.480;10.174;2022-08-21T04:03:33;12.20;99.90
1005;DHT22;491;53.480;10.174;2022-08-21T04:08:25;12.20;99.90
1005;DHT22;491;53.480;10.174;2022-08-21T04:10:54;12.20;99.90
1005;DHT22;491;53.480;10.174;2022-08-21T04:13:21;12.20;99.90
1005;DHT22;491;53.480;10.174;2022-08-21T04:15:47;12.10;99.90
1005;DHT22;491;53.480;10.174;2022-08-21T04:18:13;12.10;99.90
1005;DHT22;491;53.480;10.174;2022-08-21T04:20:39;12.10;99.90
1005;DHT22;491;53.480;10.174;2022-08-21T04:23:06;12.20;99.90
1005;DHT22;491;53.480;10.174;2022-08-21T04:25:32;12.30;99.90
1005;DHT22;491;53.480;10.174;2022-08-21T04:27:57;12.40;99.90
1005;DHT22;491;53.480;10.174;2022-08-21T04:30:24;12.40;99.90
1005;DHT22;491;53.480;10.174;2022-08-21T04:32:50;12.40;99.90
1005;DHT22;491;53.480;10.174;2022-08-21T04:35:19;12.40;99.90
1005;DHT22;491;53.480;10.174;2022-08-21T04:37:44;12.40;99.90
1005;DHT22;491;53.480;10.174;2022-08-21T04:40:12;12.40;99.90
1005;DHT22;491;53.480;10.174;2022-08-21T04:42:54;12.50;99.90
1005;DHT22;491;53.480;10.174;2022-08-21T04:45:23;12.50;99.90
1005;DHT22;491;53.480;10.174;2022-08-21T04:47:53;12.50;99.90
1005;DHT22;491;53.480;10.174;2022-08-21T04:50:26;12.60;99.90
1005;DHT22;491;53.480;10.174;2022-08-21T04:52:53;12.70;99.90
1005;DHT22;491;53.480;10.174;2022-08-21T04:55:20;12.80;99.90
1005;DHT22;491;53.480;10.174;2022-08-21T04:57:46;12.90;99.90
1005;DHT22;491;53.480;10.174;2022-08-21T05:00:13;13.00;99.90
1005;DHT22;491;53.480;10.174;2022-08-21T05:02:40;13.10;99.90
1005;DHT22;491;53.480;10.174;2022-08-21T05:05:07;13.10;99.90
1005;DHT22;491;53.480;10.174;2022-08-21T05:07:33;13.10;99.90
1005;DHT22;491;53.480;10.174;2022-08-21T05:10:00;13.20;99.90
1005;DHT22;491;53.480;10.174;2022-08-21T05:12:25;13.30;99.90
1005;DHT22;491;53.480;10.174;2022-08-21T05:14:51;13.20;99.90
1005;DHT22;491;53.480;10.174;2022-08-21T05:17:18;13.30;99.90
1005;DHT22;491;53.480;10.174;2022-08-21T05:19:43;13.40;99.90
1005;DHT22;491;53.480;10.174;2022-08-21T05:22:09;13.50;99.90
1005;DHT22;491;53.480;10.174;2022-08-21T05:24:34;13.50;99.90
1005;DHT22;491;53.480;10.174;2022-08-21T05:27:00;13.60;99.90
1005;DHT22;491;53.480;10.174;2022-08-21T05:29:25;13.60;99.90
1005;DHT22;491;53.480;10.174;2022-08-21T05:31:51;13.60;99.90
1005;DHT22;491;53.480;10.174;2022-08-21T05:34:23;13.70;99.90
1005;DHT22;491;53.480;10.174;2022-08-21T05:36:52;13.80;99.90
1005;DHT22;491;53.480;10.174;2022-08-21T05:39:18;13.80;99.90
1005;DHT22;491;53.480;10.174;2022-08-21T05:41:43;14.10;99.90
1005;DHT22;491;53.480;10.174;2022-08-21T05:44:09;14.40;99.90
1005;DHT22;491;53.480;10.174;2022-08-21T05:46:34;14.80;99.90
1005;DHT22;491;53.480;10.174;2022-08-21T05:49:00;14.90;99.90
1005;DHT22;491;53.480;10.174;2022-08-21T05:51:25;15.50;99.90
1005;DHT22;491;53.480;10.174;2022-08-21T05:53:50;15.10;99.90
1005;DHT22;491;53.480;10.174;2022-08-21T05:56:16;15.00;99.90
1005;DHT22;491;53.480;10.174;2022-08-21T05:58:42;14.80;99.90
1005;DHT22;491;53.480;10.174;2022-08-21T06:01:07;14.80;99.90
1005;DHT22;491;53.480;10.174;2022-08-21T06:03:39;14.90;99.90
1005;DHT22;491;53.480;10.174;2022-08-21T06:06:06;15.10;99.90
1005;DHT22;491;53.480;10.174;2022-08-21T06:08:32;15.00;99.90
1005;DHT22;491;53.480;10.174;2022-08-21T06:11:00;15.00;99.90
1005;DHT22;491;53.480;10.174;2022-08-21T06:13:26;14.90;99.90
1005;DHT22;491;53.480;10.174;2022-08-21T06:16:02;14.80;99.90
1005;DHT22;491;53.480;10.174;2022-08-21T06:18:28;14.90;99.90
1005;DHT22;491;53.480;10.174;2022-08-21T06:20:53;14.90;99.90
1005;DHT22;491;53.480;10.174;2022-08-21T06:23:19;14.80;99.90
1005;DHT22;491;53.480;10.174;2022-08-21T06:25:44;14.80;99.90
1005;DHT22;491;53.480;10.174;2022-08-21T06:28:10;14.80;99.90
1005;DHT22;491;53.480;10.174;2022-08-21T06:30:37;14.90;99.90
1005;DHT22;491;53.480;10.174;2022-08-21T06:33:04;15.00;99.90
1005;DHT22;491;53.480;10.174;2022-08-21T06:35:30;15.20;99.90
1005;DHT22;491;53.480;10.174;2022-08-21T06:37:56;15.40;99.90
1005;DHT22;491;53.480;10.174;2022-08-21T06:40:22;15.40;99.90
1005;DHT22;491;53.480;10.174;2022-08-21T06:42:48;15.70;99.90
1005;DHT22;491;53.480;10.174;2022-08-21T06:45:14;16.70;99.90
1005;DHT22;491;53.480;10.174;2022-08-21T06:47:39;16.70;99.90
1005;DHT22;491;53.480;10.174;2022-08-21T06:50:06;16.70;99.90
1005;DHT22;491;53.480;10.174;2022-08-21T06:52:37;16.70;99.90
1005;DHT22;491;53.480;10.174;2022-08-21T06:55:08;16.70;99.90
1005;DHT22;491;53.480;10.174;2022-08-21T06:57:34;17.20;46.00
1005;DHT22;491;53.480;10.174;2022-08-21T07:00:00;17.40;1.00
1005;DHT22;491;53.480;10.174;2022-08-21T07:02:25;17.40;22.80
1005;DHT22;491;53.480;10.174;2022-08-21T07:04:51;17.60;1.00
1005;DHT22;491;53.480;10.174;2022-08-21T07:07:16;17.80;1.00
1005;DHT22;491;53.480;10.174;2022-08-21T07:09:42;18.50;1.00
1005;DHT22;491;53.480;10.174;2022-08-21T07:12:08;18.50;99.90
1005;DHT22;491;53.480;10.174;2022-08-21T07:14:33;21.80;99.90
1005;DHT22;491;53.480;10.174;2022-08-21T07:16:59;21.20;99.90
1005;DHT22;491;53.480;10.174;2022-08-21T07:19:24;19.90;99.90
1005;DHT22;491;53.480;10.174;2022-08-21T07:21:57;19.10;1.00
1005;DHT22;491;53.480;10.174;2022-08-21T07:24:24;19.50;99.90
1005;DHT22;491;53.480;10.174;2022-08-21T07:26:49;20.80;99.90
1005;DHT22;491;53.480;10.174;2022-08-21T07:29:15;21.70;99.90
1005;DHT22;491;53.480;10.174;2022-08-21T07:31:40;21.20;4.80
1005;DHT22;491;53.480;10.174;2022-08-21T07:34:06;20.90;97.90
1005;DHT22;491;53.480;10.174;2022-08-21T07:36:31;21.80;99.90
1005;DHT22;491;53.480;10.174;2022-08-21T07:38:57;24.50;99.90
1005;DHT22;491;53.480;10.174;2022-08-21T07:41:25;25.40;99.90
1005;DHT22;491;53.480;10.174;2022-08-21T07:43:52;26.30;99.90
1005;DHT22;491;53.480;10.174;2022-08-21T07:46:17;26.80;79.20
1005;DHT22;491;53.480;10.174;2022-08-21T07:48:43;25.60;91.70
1005;DHT22;491;53.480;10.174;2022-08-21T07:51:11;26.30;93.10
1005;DHT22;491;53.480;10.174;2022-08-21T07:53:38;26.70;64.60
1005;DHT22;491;53.480;10.174;2022-08-21T07:56:05;27.00;64.70
1005;DHT22;491;53.480;10.174;2022-08-21T07:58:31;27.00;42.10
1005;DHT22;491;53.480;10.174;2022-08-21T08:00:57;26.40;26.20
1005;DHT22;491;53.480;10.174;2022-08-21T08:03:23;27.10;35.80
1005;DHT22;491;53.480;10.174;2022-08-21T08:05:49;28.20;31.00
1005;DHT22;491;53.480;10.174;2022-08-21T08:08:14;28.00;19.00
1005;DHT22;491;53.480;10.174;2022-08-21T08:10:40;26.90;13.30
1005;DHT22;491;53.480;10.174;2022-08-21T08:13:05;28.20;20.20
1005;DHT22;491;53.480;10.174;2022-08-21T08:15:31;27.80;17.70
1005;DHT22;491;53.480;10.174;2022-08-21T08:17:57;28.30;22.80
1005;DHT22;491;53.480;10.174;2022-08-21T08:20:23;28.10;13.20
1005;DHT22;491;53.480;10.174;2022-08-21T08:22:50;28.40;15.20
1005;DHT22;491;53.480;10.174;2022-08-21T08:25:17;29.00;17.10
1005;DHT22;491;53.480;10.174;2022-08-21T08:27:43;29.30;15.00
1005;DHT22;491;53.480;10.174;2022-08-21T08:30:11;29.40;11.00
1005;DHT22;491;53.480;10.174;2022-08-21T08:32:37;29.10;7.10
1005;DHT22;491;53.480;10.174;2022-08-21T08:35:03;29.40;7.90
1005;DHT22;491;53.480;10.174;2022-08-21T08:37:29;28.60;2.80
1005;DHT22;491;53.480;10.174;2022-08-21T08:39:55;27.50;3.10
1005;DHT22;491;53.480;10.174;2022-08-21T08:42:26;28.80;14.00
1005;DHT22;491;53.480;10.174;2022-08-21T08:45:01;28.20;1.00
1005;DHT22;491;53.480;10.174;2022-08-21T08:47:30;26.50;1.00
1005;DHT22;491;53.480;10.174;2022-08-21T08:50:18;25.50;6.90
1005;DHT22;491;53.480;10.174;2022-08-21T08:52:54;25.30;18.40
1005;DHT22;491;53.480;10.174;2022-08-21T08:57:59;25.80;26.10
1005;DHT22;491;53.480;10.174;2022-08-21T09:00:28;26.00;11.10
1005;DHT22;491;53.480;10.174;2022-08-21T09:02:55;25.10;19.40
1005;DHT22;491;53.480;10.174;2022-08-21T09:05:25;25.00;24.70
1005;DHT22;491;53.480;10.174;2022-08-21T09:07:58;24.30;37.30
1005;DHT22;491;53.480;10.174;2022-08-21T09:11:03;25.30;31.20
1005;DHT22;491;53.480;10.174;2022-08-21T09:19:34;29.90;12.00
1005;DHT22;491;53.480;10.174;2022-08-21T09:22:15;30.50;8.80
1005;DHT22;491;53.480;10.174;2022-08-21T09:27:19;30.90;8.00
1005;DHT22;491;53.480;10.174;2022-08-21T09:29:48;30.80;1.00
1005;DHT22;491;53.480;10.174;2022-08-21T09:32:18;30.90;1.00
1005;DHT22;491;53.480;10.174;2022-08-21T09:35:07;30.50;1.00
1005;DHT22;491;53.480;10.174;2022-08-21T09:37:44;31.00;1.00
1005;DHT22;491;53.480;10.174;2022-08-21T09:40:28;31.20;1.00
1005;DHT22;491;53.480;10.174;2022-08-21T09:42:57;31.30;1.00
1005;DHT22;491;53.480;10.174;2022-08-21T09:45:23;31.60;1.00
1005;DHT22;491;53.480;10.174;2022-08-21T09:47:48;31.40;1.00
1005;DHT22;491;53.480;10.174;2022-08-21T09:50:18;31.40;1.00
1005;DHT22;491;53.480;10.174;2022-08-21T09:52:50;31.20;1.00
1005;DHT22;491;53.480;10.174;2022-08-21T09:55:21;30.90;1.00
1005;DHT22;491;53.480;10.174;2022-08-21T09:58:07;31.00;1.00
1005;DHT22;491;53.480;10.174;2022-08-21T10:00:34;31.70;1.00
1005;DHT22;491;53.480;10.174;2022-08-21T10:03:16;31.40;1.00
1005;DHT22;491;53.480;10.174;2022-08-21T10:06:19;31.90;1.00
1005;DHT22;491;53.480;10.174;2022-08-21T10:08:45;31.40;1.00
1005;DHT22;491;53.480;10.174;2022-08-21T10:11:16;30.70;1.00
1005;DHT22;491;53.480;10.174;2022-08-21T10:17:05;30.40;1.00
1005;DHT22;491;53.480;10.174;2022-08-21T10:25:17;28.70;1.00
1005;DHT22;491;53.480;10.174;2022-08-21T10:28:02;27.80;1.00
1005;DHT22;491;53.480;10.174;2022-08-21T10:30:56;28.40;1.00
1005;DHT22;491;53.480;10.174;2022-08-21T10:36:25;31.50;1.00
1005;DHT22;491;53.480;10.174;2022-08-21T10:39:06;31.60;1.00
1005;DHT22;491;53.480;10.174;2022-08-21T10:44:39;31.90;1.00
1005;DHT22;491;53.480;10.174;2022-08-21T10:47:17;32.30;1.00
1005;DHT22;491;53.480;10.174;2022-08-21T10:53:22;29.20;1.00
1005;DHT22;491;53.480;10.174;2022-08-21T10:55:35;27.60;1.00
1005;DHT22;491;53.480;10.174;2022-08-21T10:58:09;27.10;1.00
1005;DHT22;491;53.480;10.174;2022-08-21T11:00:48;29.00;1.00
1005;DHT22;491;53.480;10.174;2022-08-21T11:03:44;30.40;1.00
1005;DHT22;491;53.480;10.174;2022-08-21T11:08:46;31.10;1.00
1005;DHT22;491;53.480;10.174;2022-08-21T11:11:21;30.20;1.00
1005;DHT22;491;53.480;10.174;2022-08-21T11:13:58;31.30;1.00
1005;DHT22;491;53.480;10.174;2022-08-21T11:16:37;31.70;1.00
1005;DHT22;491;53.480;10.174;2022-08-21T11:24:54;32.30;1.00
1005;DHT22;491;53.480;10.174;2022-08-21T11:27:33;32.10;1.00
1005;DHT22;491;53.480;10.174;2022-08-21T11:30:00;31.90;1.00
1005;DHT22;491;53.480;10.174;2022-08-21T11:40:59;32.60;1.00
1005;DHT22;491;53.480;10.174;2022-08-21T11:56:48;32.00;1.00
1005;DHT22;491;53.480;10.174;2022-08-21T11:59:49;32.30;1.00
1005;DHT22;491;53.480;10.174;2022-08-21T12:02:16;32.10;1.00
1005;DHT22;491;53.480;10.174;2022-08-21T12:04:53;31.90;1.00
1005;DHT22;491;53.480;10.174;2022-08-21T12:07:44;31.70;1.00
1005;DHT22;491;53.480;10.174;2022-08-21T12:10:15;31.80;1.00
1005;DHT22;491;53.480;10.174;2022-08-21T12:12:43;32.30;1.00
1005;DHT22;491;53.480;10.174;2022-08-21T12:20:36;30.80;1.00
1005;DHT22;491;53.480;10.174;2022-08-21T12:25:46;28.90;1.00
1005;DHT22;491;53.480;10.174;2022-08-21T12:28:22;27.90;1.00
1005;DHT22;491;53.480;10.174;2022-08-21T12:30:48;27.60;1.00
1005;DHT22;491;53.480;10.174;2022-08-21T12:35:49;30.00;1.00
1005;DHT22;491;53.480;10.174;2022-08-21T12:40:58;30.80;1.00
1005;DHT22;491;53.480;10.174;2022-08-21T12:43:29;31.20;1.00
1005;DHT22;491;53.480;10.174;2022-08-21T12:45:56;31.30;1.00
1005;DHT22;491;53.480;10.174;2022-08-21T12:48:33;31.50;1.00
1005;DHT22;491;53.480;10.174;2022-08-21T12:51:13;31.60;1.00
1005;DHT22;491;53.480;10.174;2022-08-21T12:53:54;31.50;1.00
1005;DHT22;491;53.480;10.174;2022-08-21T12:56:26;31.60;1.00
1005;DHT22;491;53.480;10.174;2022-08-21T12:58:55;31.80;1.00
1005;DHT22;491;53.480;10.174;2022-08-21T13:01:27;31.70;1.00
1005;DHT22;491;53.480;10.174;2022-08-21T13:03:58;30.80;1.00
1005;DHT22;491;53.480;10.174;2022-08-21T13:06:28;31.00;1.00
1005;DHT22;491;53.480;10.174;2022-08-21T13:09:10;30.80;1.00
1005;DHT22;491;53.480;10.174;2022-08-21T13:11:37;30.20;1.00
1005;DHT22;491;53.480;10.174;2022-08-21T13:14:04;29.10;1.00
1005;DHT22;491;53.480;10.174;2022-08-21T13:16:30;29.40;1.00
1005;DHT22;491;53.480;10.174;2022-08-21T13:18:58;29.90;1.00
1005;DHT22;491;53.480;10.174;2022-08-21T13:21:33;30.10;1.00
1005;DHT22;491;53.480;10.174;2022-08-21T13:30:22;28.90;1.00
1005;DHT22;491;53.480;10.174;2022-08-21T13:33:01;27.80;1.00
1005;DHT22;491;53.480;10.174;2022-08-21T13:35:36;27.30;1.00
1005;DHT22;491;53.480;10.174;2022-08-21T13:38:03;27.80;1.00
1005;DHT22;491;53.480;10.174;2022-08-21T13:40:38;28.40;1.00
1005;DHT22;491;53.480;10.174;2022-08-21T13:43:14;28.20;1.00
1005;DHT22;491;53.480;10.174;2022-08-21T13:45:44;27.50;1.00
1005;DHT22;491;53.480;10.174;2022-08-21T13:48:11;27.00;1.00
1005;DHT22;491;53.480;10.174;2022-08-21T13:50:38;27.40;1.00
1005;DHT22;491;53.480;10.174;2022-08-21T13:53:07;27.90;1.00
1005;DHT22;491;53.480;10.174;2022-08-21T13:55:44;27.90;1.00
1005;DHT22;491;53.480;10.174;2022-08-21T13:58:10;27.30;1.00
1005;DHT22;491;53.480;10.174;2022-08-21T14:00:48;26.70;1.00
1005;DHT22;491;53.480;10.174;2022-08-21T14:03:31;27.20;1.00
1005;DHT22;491;53.480;10.174;2022-08-21T14:05:57;27.20;1.00
1005;DHT22;491;53.480;10.174;2022-08-21T14:08:47;27.70;1.00
1005;DHT22;491;53.480;10.174;2022-08-21T14:11:13;27.70;1.00
1005;DHT22;491;53.480;10.174;2022-08-21T14:16:27;27.80;1.00
1005;DHT22;491;53.480;10.174;2022-08-21T14:18:54;27.50;1.00
1005;DHT22;491;53.480;10.174;2022-08-21T14:21:40;27.20;1.00
1005;DHT22;491;53.480;10.174;2022-08-21T14:24:28;27.40;1.00
1005;DHT22;491;53.480;10.174;2022-08-21T14:27:02;27.80;1.00
1005;DHT22;491;53.480;10.174;2022-08-21T14:29:37;27.30;1.00
1005;DHT22;491;53.480;10.174;2022-08-21T14:32:36;26.90;1.00
1005;DHT22;491;53.480;10.174;2022-08-21T14:35:02;27.30;1.00
1005;DHT22;491;53.480;10.174;2022-08-21T14:37:28;27.60;1.00
1005;DHT22;491;53.480;10.174;2022-08-21T14:39:53;27.60;1.00
1005;DHT22;491;53.480;10.174;2022-08-21T14:42:19;27.50;1.00
1005;DHT22;491;53.480;10.174;2022-08-21T14:44:45;27.30;1.00
1005;DHT22;491;53.480;10.174;2022-08-21T14:47:11;27.30;1.00
1005;DHT22;491;53.480;10.174;2022-08-21T14:49:36;27.20;1.00
1005;DHT22;491;53.480;10.174;2022-08-21T14:52:02;27.30;1.00
1005;DHT22;491;53.480;10.174;2022-08-21T14:54:29;27.00;1.00
1005;DHT22;491;53.480;10.174;2022-08-21T14:56:57;26.90;1.00
1005;DHT22;491;53.480;10.174;2022-08-21T14:59:26;26.90;1.00
1005;DHT22;491;53.480;10.174;2022-08-21T15:01:52;26.70;1.00
1005;DHT22;491;53.480;10.174;2022-08-21T15:04:17;26.50;1.00
1005;DHT22;491;53.480;10.174;2022-08-21T15:06:53;26.30;1.00
1005;DHT22;491;53.480;10.174;2022-08-21T15:09:18;25.70;1.00
1005;DHT22;491;53.480;10.174;2022-08-21T15:11:44;25.70;1.00
1005;DHT22;491;53.480;10.174;2022-08-21T15:14:36;25.70;1.00
1005;DHT22;491;53.480;10.174;2022-08-21T15:16:59;25.70;1.00
1005;DHT22;491;53.480;10.174;2022-08-21T15:19:31;25.70;1.00
1005;DHT22;491;53.480;10.174;2022-08-21T15:21:57;25.70;1.00
1005;DHT22;491;53.480;10.174;2022-08-21T15:24:22;25.40;1.00
1005;DHT22;491;53.480;10.174;2022-08-21T15:26:49;25.40;1.00
1005;DHT22;491;53.480;10.174;2022-08-21T15:29:15;25.50;1.00
1005;DHT22;491;53.480;10.174;2022-08-21T15:32:20;25.60;1.00
1005;DHT22;491;53.480;10.174;2022-08-21T15:34:44;25.40;1.00
1005;DHT22;491;53.480;10.174;2022-08-21T15:37:11;25.60;1.00
1005;DHT22;491;53.480;10.174;2022-08-21T15:39:36;25.50;1.00
1005;DHT22;491;53.480;10.174;2022-08-21T15:42:02;25.40;1.00
1005;DHT22;491;53.480;10.174;2022-08-21T15:44:29;25.40;1.00
1005;DHT22;491;53.480;10.174;2022-08-21T15:46:55;25.40;1.00
1005;DHT22;491;53.480;10.174;2022-08-21T15:49:22;25.40;1.00
1005;DHT22;491;53.480;10.174;2022-08-21T15:51:47;25.50;1.00
1005;DHT22;491;53.480;10.174;2022-08-21T15:54:13;25.40;1.00
1005;DHT22;491;53.480;10.174;2022-08-21T15:56:44;25.40;1.00
1005;DHT22;491;53.480;10.174;2022-08-21T15:59:17;25.40;1.00
1005;DHT22;491;53.480;10.174;2022-08-21T16:01:44;25.20;1.00
1005;DHT22;491;53.480;10.174;2022-08-21T16:04:11;25.20;1.00
1005;DHT22;491;53.480;10.174;2022-08-21T16:06:39;25.10;1.00
1005;DHT22;491;53.480;10.174;2022-08-21T16:09:11;25.20;1.00
1005;DHT22;491;53.480;10.174;2022-08-21T16:11:36;25.10;1.00
1005;DHT22;491;53.480;10.174;2022-08-21T16:14:03;25.10;1.00
1005;DHT22;491;53.480;10.174;2022-08-21T16:16:33;25.10;1.00
1005;DHT22;491;53.480;10.174;2022-08-21T16:18:59;25.00;1.00
1005;DHT22;491;53.480;10.174;2022-08-21T16:21:25;25.00;1.00
1005;DHT22;491;53.480;10.174;2022-08-21T16:23:50;24.90;1.00
1005;DHT22;491;53.480;10.174;2022-08-21T16:26:16;24.80;1.00
1005;DHT22;491;53.480;10.174;2022-08-21T16:28:43;24.80;1.00
1005;DHT22;491;53.480;10.174;2022-08-21T16:31:11;24.90;1.00
1005;DHT22;491;53.480;10.174;2022-08-21T16:33:40;24.80;1.00
1005;DHT22;491;53.480;10.174;2022-08-21T16:36:07;24.70;1.00
1005;DHT22;491;53.480;10.174;2022-08-21T16:38:36;24.70;1.00
1005;DHT22;491;53.480;10.174;2022-08-21T16:41:05;24.70;1.00
1005;DHT22;491;53.480;10.174;2022-08-21T16:43:31;24.50;1.00
1005;DHT22;491;53.480;10.174;2022-08-21T16:45:57;24.50;1.00
1005;DHT22;491;53.480;10.174;2022-08-21T16:48:24;24.50;1.00
1005;DHT22;491;53.480;10.174;2022-08-21T16:50:56;24.50;1.00
1005;DHT22;491;53.480;10.174;2022-08-21T16:53:22;24.30;1.00
1005;DHT22;491;53.480;10.174;2022-08-21T16:55:50;24.20;1.00
1005;DHT22;491;53.480;10.174;2022-08-21T16:58:22;24.10;1.00
1005;DHT22;491;53.480;10.174;2022-08-21T17:00:49;24.10;1.00
1005;DHT22;491;53.480;10.174;2022-08-21T17:03:17;24.00;1.00
1005;DHT22;491;53.480;10.174;2022-08-21T17:05:45;24.00;1.00
1005;DHT22;491;53.480;10.174;2022-08-21T17:08:11;24.00;1.00
1005;DHT22;491;53.480;10.174;2022-08-21T17:10:37;24.00;1.00
1005;DHT22;491;53.480;10.174;2022-08-21T17:13:03;23.90;1.00
1005;DHT22;491;53.480;10.174;2022-08-21T17:15:36;23.80;1.00
1005;DHT22;491;53.480;10.174;2022-08-21T17:18:03;23.70;1.00
1005;DHT22;491;53.480;10.174;2022-08-21T17:20:30;23.70;1.00
1005;DHT22;491;53.480;10.174;2022-08-21T17:22:56;23.70;1.00
1005;DHT22;491;53.480;10.174;2022-08-21T17:25:23;23.60;1.00
1005;DHT22;491;53.480;10.174;2022-08-21T17:27:49;23.50;1.00
1005;DHT22;491;53.480;10.174;2022-08-21T17:30:16;23.40;1.00
1005;DHT22;491;53.480;10.174;2022-08-21T17:32:43;23.30;1.00
1005;DHT22;491;53.480;10.174;2022-08-21T17:35:14;23.20;1.00
1005;DHT22;491;53.480;10.174;2022-08-21T17:37:40;23.30;1.00
1005;DHT22;491;53.480;10.174;2022-08-21T17:40:07;23.20;1.00
1005;DHT22;491;53.480;10.174;2022-08-21T17:42:34;23.00;18.50
1005;DHT22;491;53.480;10.174;2022-08-21T17:45:00;23.00;38.30